createdAt,value
2023-04-26T00:00:09.726Z,15.61
2023-04-26T00:01:15.807Z,15.60
2023-04-26T00:02:20.222Z,15.60
2023-04-26T00:03:24.182Z,15.62
2023-04-26T00:04:30.220Z,15.61
2023-04-26T00:05:33.963Z,15.62
2023-04-26T00:06:38.397Z,15.58
2023-04-26T00:07:41.852Z,15.58
2023-04-26T00:08:46.094Z,15.57
2023-04-26T00:09:49.537Z,15.58
2023-04-26T00:10:52.950Z,15.56
2023-04-26T00:11:57.116Z,15.54
2023-04-26T00:13:01.233Z,15.53
2023-04-26T00:14:04.727Z,15.49
2023-04-26T00:15:09.327Z,15.46
2023-04-26T00:16:15.957Z,15.43
2023-04-26T00:17:19.687Z,15.40
2023-04-26T00:18:23.217Z,15.36
2023-04-26T00:19:27.275Z,15.33
2023-04-26T00:20:31.166Z,15.31
2023-04-26T00:21:34.984Z,15.27
2023-04-26T00:22:39.105Z,15.26
2023-04-26T00:23:43.212Z,15.22
2023-04-26T00:24:46.760Z,15.21
2023-04-26T00:25:50.714Z,15.22
2023-04-26T00:26:56.799Z,15.20
2023-04-26T00:28:00.121Z,15.21
2023-04-26T00:29:05.058Z,15.21
2023-04-26T00:30:10.008Z,15.20
2023-04-26T00:31:17.717Z,15.22
2023-04-26T00:32:21.598Z,15.20
2023-04-26T00:33:25.728Z,15.21
2023-04-26T00:34:38.298Z,15.22
2023-04-26T00:35:42.066Z,15.22
2023-04-26T00:36:46.187Z,15.20
2023-04-26T00:37:49.982Z,15.20
2023-04-26T00:38:54.270Z,15.18
2023-04-26T00:39:58.300Z,15.19
2023-04-26T00:41:02.058Z,15.21
2023-04-26T00:42:05.661Z,15.20
2023-04-26T00:43:09.102Z,15.23
2023-04-26T00:44:12.718Z,15.21
2023-04-26T00:45:16.141Z,15.19
2023-04-26T00:46:19.684Z,15.18
2023-04-26T00:47:23.510Z,15.18
2023-04-26T00:48:27.381Z,15.16
2023-04-26T00:49:31.084Z,15.19
2023-04-26T00:50:34.604Z,15.17
2023-04-26T00:51:39.004Z,15.14
2023-04-26T00:52:43.051Z,15.13
2023-04-26T00:53:46.802Z,15.08
2023-04-26T00:54:50.834Z,15.07
2023-04-26T00:55:55.314Z,15.04
2023-04-26T00:56:58.797Z,15.06
2023-04-26T00:58:02.669Z,15.03
2023-04-26T00:59:06.445Z,15.02
2023-04-26T01:00:11.154Z,15.01
2023-04-26T01:01:14.867Z,15.02
2023-04-26T01:02:18.859Z,15.00
2023-04-26T01:03:23.680Z,14.99
2023-04-26T01:04:28.363Z,14.98
2023-04-26T01:05:32.366Z,15.00
2023-04-26T01:06:36.835Z,15.03
2023-04-26T01:07:40.924Z,15.01
2023-04-26T01:08:44.629Z,15.04
2023-04-26T01:09:48.719Z,15.02
2023-04-26T01:10:52.469Z,15.05
2023-04-26T01:11:58.792Z,15.01
2023-04-26T01:13:02.852Z,15.02
2023-04-26T01:14:07.279Z,15.04
2023-04-26T01:15:12.373Z,15.03
2023-04-26T01:16:15.666Z,15.01
2023-04-26T01:17:21.089Z,14.99
2023-04-26T01:18:25.763Z,14.96
2023-04-26T01:19:30.070Z,14.98
2023-04-26T01:20:33.501Z,14.94
2023-04-26T01:21:38.076Z,14.91
2023-04-26T01:22:42.111Z,14.88
2023-04-26T01:23:46.185Z,14.89
2023-04-26T01:24:51.575Z,14.90
2023-04-26T01:25:56.920Z,14.91
2023-04-26T01:27:00.667Z,14.87
2023-04-26T01:28:04.797Z,14.83
2023-04-26T01:29:21.572Z,14.84
2023-04-26T01:30:24.871Z,14.80
2023-04-26T01:31:28.377Z,14.80
2023-04-26T01:32:32.075Z,14.79
2023-04-26T01:33:35.690Z,14.78
2023-04-26T01:34:39.622Z,14.76
2023-04-26T01:35:43.273Z,14.74
2023-04-26T01:36:47.224Z,14.73
2023-04-26T01:37:51.072Z,14.71
2023-04-26T01:38:54.764Z,14.71
2023-04-26T01:39:58.836Z,14.68
2023-04-26T01:41:02.471Z,14.68
2023-04-26T01:42:09.026Z,14.68
2023-04-26T01:43:12.639Z,14.61
2023-04-26T01:44:16.730Z,14.45
2023-04-26T01:45:20.999Z,14.42
2023-04-26T01:46:42.963Z,14.36
2023-04-26T01:47:49.549Z,14.34
2023-04-26T01:48:53.201Z,14.33
2023-04-26T01:49:59.153Z,14.31
2023-04-26T01:51:03.023Z,14.26
2023-04-26T01:52:06.757Z,14.20
2023-04-26T01:53:10.534Z,14.20
2023-04-26T01:54:14.272Z,14.22
2023-04-26T01:55:17.792Z,14.23
2023-04-26T01:56:21.989Z,14.23
2023-04-26T01:57:25.798Z,14.25
2023-04-26T01:58:30.441Z,14.27
2023-04-26T01:59:33.931Z,14.30
2023-04-26T02:00:38.100Z,14.32
2023-04-26T02:01:44.479Z,14.29
2023-04-26T02:02:48.040Z,14.29
2023-04-26T02:03:51.964Z,14.30
2023-04-26T02:04:57.096Z,14.27
2023-04-26T02:06:03.399Z,14.28
2023-04-26T02:07:07.159Z,14.30
2023-04-26T02:08:10.402Z,14.31
2023-04-26T02:09:13.977Z,14.31
2023-04-26T02:10:18.538Z,14.30
2023-04-26T02:11:21.937Z,14.31
2023-04-26T02:12:25.565Z,14.33
2023-04-26T02:13:29.544Z,14.32
2023-04-26T02:14:33.489Z,14.32
2023-04-26T02:15:36.780Z,14.31
2023-04-26T02:16:41.481Z,14.33
2023-04-26T02:17:45.264Z,14.31
2023-04-26T02:18:50.544Z,14.20
2023-04-26T02:19:54.707Z,14.13
2023-04-26T02:20:58.730Z,14.02
2023-04-26T02:22:02.880Z,13.86
2023-04-26T02:23:06.937Z,13.81
2023-04-26T02:24:10.402Z,13.80
2023-04-26T02:25:14.313Z,13.81
2023-04-26T02:26:18.450Z,13.85
2023-04-26T02:27:22.055Z,13.86
2023-04-26T02:28:25.766Z,13.84
2023-04-26T02:29:43.572Z,13.81
2023-04-26T02:30:49.165Z,13.72
2023-04-26T02:31:53.010Z,13.70
2023-04-26T02:32:56.586Z,13.69
2023-04-26T02:33:59.816Z,13.72
2023-04-26T02:35:06.184Z,13.71
2023-04-26T02:36:10.366Z,13.72
2023-04-26T02:37:13.845Z,13.75
2023-04-26T02:38:16.983Z,13.79
2023-04-26T02:39:21.572Z,13.79
2023-04-26T02:40:24.884Z,13.82
2023-04-26T02:41:28.329Z,13.85
2023-04-26T02:42:32.526Z,13.88
2023-04-26T02:43:36.027Z,13.92
2023-04-26T02:44:40.209Z,13.93
2023-04-26T02:45:45.012Z,13.94
2023-04-26T02:46:50.759Z,13.94
2023-04-26T02:47:54.670Z,13.97
2023-04-26T02:48:58.642Z,14.01
2023-04-26T02:50:02.076Z,13.99
2023-04-26T02:51:07.882Z,14.03
2023-04-26T02:52:11.622Z,14.04
2023-04-26T02:53:14.959Z,14.05
2023-04-26T02:54:18.376Z,14.08
2023-04-26T02:55:22.249Z,14.13
2023-04-26T02:56:26.254Z,14.17
2023-04-26T02:57:32.706Z,14.19
2023-04-26T02:58:37.109Z,14.22
2023-04-26T02:59:42.184Z,14.25
2023-04-26T03:00:48.840Z,14.30
2023-04-26T03:01:52.373Z,14.32
2023-04-26T03:02:56.485Z,14.33
2023-04-26T03:04:00.214Z,14.34
2023-04-26T03:05:04.595Z,14.35
2023-04-26T03:06:09.038Z,14.39
2023-04-26T03:07:12.867Z,14.37
2023-04-26T03:08:16.593Z,14.39
2023-04-26T03:09:20.615Z,14.36
2023-04-26T03:10:24.434Z,14.35
2023-04-26T03:11:27.847Z,14.28
2023-04-26T03:12:31.179Z,14.24
2023-04-26T03:13:34.642Z,14.22
2023-04-26T03:14:38.843Z,14.18
2023-04-26T03:15:47.191Z,14.06
2023-04-26T03:16:51.837Z,13.93
2023-04-26T03:17:55.613Z,13.82
2023-04-26T03:18:59.514Z,13.76
2023-04-26T03:20:03.097Z,13.76
2023-04-26T03:21:07.414Z,13.75
2023-04-26T03:22:13.080Z,13.75
2023-04-26T03:23:16.801Z,13.78
2023-04-26T03:24:21.168Z,13.81
2023-04-26T03:25:25.121Z,13.85
2023-04-26T03:26:29.225Z,13.90
2023-04-26T03:27:33.534Z,13.94
2023-04-26T03:28:37.669Z,13.94
2023-04-26T03:29:42.852Z,13.93
2023-04-26T03:30:50.926Z,13.93
2023-04-26T03:31:55.194Z,14.00
2023-04-26T03:32:59.147Z,14.01
2023-04-26T03:34:02.962Z,14.04
2023-04-26T03:35:06.681Z,14.09
2023-04-26T03:36:10.684Z,14.14
2023-04-26T03:37:14.591Z,14.17
2023-04-26T03:38:20.750Z,14.23
2023-04-26T03:39:24.544Z,14.30
2023-04-26T03:40:29.721Z,14.35
2023-04-26T03:41:34.125Z,14.39
2023-04-26T03:42:41.537Z,14.43
2023-04-26T03:43:45.522Z,14.42
2023-04-26T03:44:49.324Z,14.41
2023-04-26T03:45:52.892Z,14.43
2023-04-26T03:46:56.736Z,14.44
2023-04-26T03:48:00.396Z,14.44
2023-04-26T03:49:04.475Z,14.45
2023-04-26T03:50:09.856Z,14.50
2023-04-26T03:51:13.459Z,14.49
2023-04-26T03:52:17.885Z,14.52
2023-04-26T03:53:23.110Z,14.53
2023-04-26T03:54:26.714Z,14.52
2023-04-26T03:55:31.397Z,14.55
2023-04-26T03:56:35.299Z,14.57
2023-04-26T03:57:39.058Z,14.57
2023-04-26T03:58:43.304Z,14.57
2023-04-26T03:59:47.521Z,14.54
2023-04-26T04:00:51.199Z,14.58
2023-04-26T04:01:54.970Z,14.63
2023-04-26T04:02:58.798Z,14.62
2023-04-26T04:04:04.313Z,14.64
2023-04-26T04:05:09.246Z,14.66
2023-04-26T04:06:13.348Z,14.72
2023-04-26T04:07:17.363Z,14.72
2023-04-26T04:08:21.331Z,14.72
2023-04-26T04:09:25.755Z,14.74
2023-04-26T04:10:30.000Z,14.76
2023-04-26T04:11:34.082Z,14.78
2023-04-26T04:12:39.019Z,14.79
2023-04-26T04:13:42.510Z,14.82
2023-04-26T04:14:45.961Z,14.85
2023-04-26T04:15:49.982Z,14.85
2023-04-26T04:16:53.150Z,14.86
2023-04-26T04:17:56.944Z,14.90
2023-04-26T04:19:01.123Z,14.88
2023-04-26T04:20:08.030Z,14.89
2023-04-26T04:21:12.043Z,14.91
2023-04-26T04:22:16.118Z,14.97
2023-04-26T04:23:19.996Z,14.97
2023-04-26T04:24:23.854Z,14.99
2023-04-26T04:25:29.195Z,15.03
2023-04-26T04:26:36.309Z,15.05
2023-04-26T04:27:39.692Z,15.06
2023-04-26T04:28:43.266Z,15.06
2023-04-26T04:29:47.678Z,15.07
2023-04-26T04:30:50.798Z,15.01
2023-04-26T04:31:54.870Z,15.02
2023-04-26T04:33:01.078Z,15.05
2023-04-26T04:34:04.785Z,15.04
2023-04-26T04:35:09.566Z,15.06
2023-04-26T04:36:13.358Z,15.07
2023-04-26T04:37:18.137Z,15.10
2023-04-26T04:38:22.022Z,15.07
2023-04-26T04:39:26.396Z,15.11
2023-04-26T04:40:30.311Z,15.13
2023-04-26T04:41:35.785Z,15.11
2023-04-26T04:42:39.838Z,15.13
2023-04-26T04:43:44.245Z,15.14
2023-04-26T04:44:48.624Z,15.13
2023-04-26T04:45:53.214Z,15.10
2023-04-26T04:46:57.318Z,15.08
2023-04-26T04:48:02.696Z,15.07
2023-04-26T04:49:06.277Z,15.10
2023-04-26T04:50:09.875Z,15.10
2023-04-26T04:51:14.292Z,15.09
2023-04-26T04:52:19.073Z,15.10
2023-04-26T04:53:22.918Z,15.12
2023-04-26T04:54:26.679Z,15.12
2023-04-26T04:55:30.487Z,15.12
2023-04-26T04:56:34.669Z,15.13
2023-04-26T04:57:38.974Z,15.15
2023-04-26T04:58:43.701Z,15.17
2023-04-26T04:59:48.125Z,15.18
2023-04-26T05:00:54.686Z,15.18
2023-04-26T05:02:03.129Z,15.17
2023-04-26T05:03:10.714Z,15.18
2023-04-26T05:04:14.193Z,15.17
2023-04-26T05:05:18.493Z,15.17
2023-04-26T05:06:22.515Z,15.19
2023-04-26T05:07:27.946Z,15.20
2023-04-26T05:08:33.216Z,15.18
2023-04-26T05:09:39.712Z,15.18
2023-04-26T05:10:43.604Z,15.20
2023-04-26T05:11:47.182Z,15.19
2023-04-26T05:12:51.124Z,15.18
2023-04-26T05:13:55.021Z,15.19
2023-04-26T05:14:59.093Z,15.19
2023-04-26T05:16:02.441Z,15.21
2023-04-26T05:17:07.110Z,15.19
2023-04-26T05:18:11.188Z,15.21
2023-04-26T05:19:15.225Z,15.20
2023-04-26T05:20:22.751Z,15.19
2023-04-26T05:21:26.967Z,15.22
2023-04-26T05:22:31.208Z,15.23
2023-04-26T05:23:35.136Z,15.18
2023-04-26T05:24:39.140Z,15.19
2023-04-26T05:25:42.978Z,15.19
2023-04-26T05:27:06.284Z,15.19
2023-04-26T05:28:19.174Z,15.19
2023-04-26T05:29:41.361Z,15.10
2023-04-26T05:30:57.636Z,15.11
2023-04-26T05:32:06.580Z,15.10
2023-04-26T05:33:16.030Z,15.09
2023-04-26T05:34:31.746Z,15.12
2023-04-26T05:35:35.944Z,15.11
2023-04-26T05:36:39.894Z,15.12
2023-04-26T05:37:43.258Z,15.12
2023-04-26T05:38:47.614Z,15.11
2023-04-26T05:39:52.117Z,15.08
2023-04-26T05:40:55.514Z,15.12
2023-04-26T05:41:59.001Z,15.11
2023-04-26T05:43:02.694Z,15.06
2023-04-26T05:44:08.054Z,15.04
2023-04-26T05:45:12.160Z,15.05
2023-04-26T05:46:16.251Z,15.10
2023-04-26T05:47:20.829Z,15.03
2023-04-26T05:48:24.519Z,15.02
2023-04-26T05:49:27.683Z,14.98
2023-04-26T05:50:31.876Z,14.97
2023-04-26T05:51:35.410Z,14.96
2023-04-26T05:52:39.044Z,14.99
2023-04-26T05:53:43.259Z,15.01
2023-04-26T05:54:47.259Z,15.06
2023-04-26T05:55:51.378Z,15.04
2023-04-26T05:56:56.708Z,15.03
2023-04-26T05:58:03.182Z,15.05
2023-04-26T05:59:06.487Z,15.06
2023-04-26T06:00:12.416Z,15.08
2023-04-26T06:01:20.227Z,15.10
2023-04-26T06:02:23.692Z,15.07
2023-04-26T06:03:28.424Z,15.03
2023-04-26T06:04:33.428Z,15.04
2023-04-26T06:05:42.500Z,15.02
2023-04-26T06:06:46.272Z,14.98
2023-04-26T06:07:50.428Z,14.89
2023-04-26T06:08:54.922Z,14.93
2023-04-26T06:09:58.224Z,14.96
2023-04-26T06:11:01.571Z,14.96
2023-04-26T06:12:05.631Z,14.93
2023-04-26T06:13:12.668Z,14.95
2023-04-26T06:14:29.344Z,14.99
2023-04-26T06:15:40.434Z,14.98
2023-04-26T06:16:44.362Z,14.95
2023-04-26T06:17:48.078Z,14.95
2023-04-26T06:18:52.954Z,14.93
2023-04-26T06:19:57.247Z,14.93
2023-04-26T06:21:01.259Z,14.88
2023-04-26T06:22:05.342Z,14.75
2023-04-26T06:23:10.544Z,14.77
2023-04-26T06:24:13.997Z,14.75
2023-04-26T06:25:17.741Z,14.82
2023-04-26T06:26:21.538Z,14.89
2023-04-26T06:27:25.674Z,14.87
2023-04-26T06:28:29.309Z,14.77
2023-04-26T06:29:36.811Z,14.78
2023-04-26T06:30:40.658Z,14.77
2023-04-26T06:31:44.342Z,14.74
2023-04-26T06:32:49.340Z,14.73
2023-04-26T06:33:53.965Z,14.82
2023-04-26T06:34:58.147Z,14.86
2023-04-26T06:36:02.544Z,14.95
2023-04-26T06:37:06.736Z,14.99
2023-04-26T06:38:14.030Z,15.01
2023-04-26T06:39:18.598Z,15.07
2023-04-26T06:40:22.684Z,15.13
2023-04-26T06:41:26.604Z,15.15
2023-04-26T06:42:29.926Z,15.13
2023-04-26T06:43:58.244Z,15.13
2023-04-26T06:45:08.748Z,15.20
2023-04-26T06:46:12.809Z,15.28
2023-04-26T06:47:16.849Z,15.35
2023-04-26T06:48:21.596Z,15.45
2023-04-26T06:49:26.040Z,15.46
2023-04-26T06:50:30.154Z,15.52
2023-04-26T06:51:33.836Z,15.60
2023-04-26T06:52:37.945Z,15.67
2023-04-26T06:53:42.580Z,15.73
2023-04-26T06:54:56.001Z,15.73
2023-04-26T06:56:00.613Z,15.84
2023-04-26T06:57:04.619Z,15.88
2023-04-26T06:58:08.458Z,15.92
2023-04-26T06:59:12.074Z,15.97
2023-04-26T07:00:16.079Z,16.02
2023-04-26T07:01:19.784Z,16.07
2023-04-26T07:02:25.210Z,16.07
2023-04-26T07:03:30.375Z,16.06
2023-04-26T07:04:34.723Z,16.12
2023-04-26T07:05:40.301Z,16.13
2023-04-26T07:06:43.945Z,16.15
2023-04-26T07:07:47.630Z,16.17
2023-04-26T07:08:52.481Z,16.15
2023-04-26T07:09:56.718Z,16.15
2023-04-26T07:11:01.077Z,16.22
2023-04-26T07:12:04.546Z,16.26
2023-04-26T07:13:09.676Z,16.32
2023-04-26T07:14:13.743Z,16.38
2023-04-26T07:15:17.452Z,16.40
2023-04-26T07:16:21.101Z,16.49
2023-04-26T07:17:25.243Z,16.55
2023-04-26T07:18:28.617Z,16.61
2023-04-26T07:19:32.752Z,16.61
2023-04-26T07:20:35.987Z,16.59
2023-04-26T07:21:39.439Z,16.60
2023-04-26T07:22:43.763Z,16.68
2023-04-26T07:23:47.120Z,16.77
2023-04-26T07:24:51.104Z,16.90
2023-04-26T07:25:55.329Z,16.97
2023-04-26T07:27:00.099Z,17.05
2023-04-26T07:28:03.524Z,17.06
2023-04-26T07:29:07.651Z,17.18
2023-04-26T07:30:11.551Z,17.15
2023-04-26T07:31:15.526Z,17.11
2023-04-26T07:32:19.524Z,17.16
2023-04-26T07:33:23.439Z,17.02
2023-04-26T07:34:27.785Z,17.07
2023-04-26T07:35:31.785Z,17.05
2023-04-26T07:36:35.351Z,17.20
2023-04-26T07:37:39.111Z,17.25
2023-04-26T07:38:43.015Z,17.22
2023-04-26T07:39:46.879Z,17.25
2023-04-26T07:40:51.426Z,17.29
2023-04-26T07:41:55.693Z,17.38
2023-04-26T07:43:00.044Z,17.42
2023-04-26T07:44:03.646Z,17.60
2023-04-26T07:45:08.274Z,17.72
2023-04-26T07:46:12.308Z,17.80
2023-04-26T07:47:16.656Z,17.81
2023-04-26T07:48:21.051Z,17.69
2023-04-26T07:49:24.546Z,17.77
2023-04-26T07:50:28.539Z,17.70
2023-04-26T07:51:32.624Z,17.79
2023-04-26T07:52:36.487Z,17.81
2023-04-26T07:53:40.563Z,17.77
2023-04-26T07:54:47.090Z,17.91
2023-04-26T07:55:54.002Z,18.00
2023-04-26T07:56:58.013Z,17.98
2023-04-26T07:58:01.926Z,18.07
2023-04-26T07:59:05.714Z,18.10
2023-04-26T08:00:13.347Z,18.16
2023-04-26T08:01:17.454Z,18.21
2023-04-26T08:02:25.076Z,18.32
2023-04-26T08:03:34.215Z,18.47
2023-04-26T08:04:37.553Z,18.49
2023-04-26T08:05:41.740Z,18.49
2023-04-26T08:06:49.138Z,18.50
2023-04-26T08:07:52.633Z,18.52
2023-04-26T08:08:56.305Z,18.57
2023-04-26T08:09:59.649Z,18.48
2023-04-26T08:11:02.992Z,18.51
2023-04-26T08:12:07.097Z,18.44
2023-04-26T08:13:10.877Z,18.44
2023-04-26T08:14:14.992Z,18.47
2023-04-26T08:15:18.324Z,18.51
2023-04-26T08:16:22.314Z,18.47
2023-04-26T08:17:26.079Z,18.49
2023-04-26T08:18:29.613Z,18.57
2023-04-26T08:19:34.443Z,18.70
2023-04-26T08:20:50.265Z,18.87
2023-04-26T08:21:53.472Z,19.02
2023-04-26T08:23:00.525Z,19.31
2023-04-26T08:24:04.908Z,19.60
2023-04-26T08:25:08.825Z,19.80
2023-04-26T08:26:12.501Z,19.77
2023-04-26T08:27:15.698Z,19.79
2023-04-26T08:28:20.636Z,19.85
2023-04-26T08:52:10.045Z,29.29
2023-04-26T08:53:19.879Z,29.55
2023-04-26T08:54:27.207Z,29.80
2023-04-26T08:55:30.383Z,30.26
2023-04-26T08:56:36.767Z,30.45
2023-04-26T08:58:36.733Z,30.90
2023-04-26T08:59:41.494Z,30.95
2023-04-26T09:00:48.954Z,30.88
2023-04-26T09:01:52.311Z,30.71
2023-04-26T09:02:56.384Z,30.75
2023-04-26T09:04:00.589Z,30.66
2023-04-26T09:05:05.208Z,30.53
2023-04-26T09:06:10.099Z,30.58
2023-04-26T09:07:34.957Z,30.61
2023-04-26T09:08:38.445Z,30.15
2023-04-26T09:09:45.002Z,30.34
2023-04-26T09:10:48.359Z,30.21
2023-04-26T09:11:58.839Z,30.23
2023-04-26T09:13:02.908Z,30.16
2023-04-26T09:14:07.012Z,30.24
2023-04-26T09:15:11.255Z,30.10
2023-04-26T09:16:15.800Z,30.12
2023-04-26T09:17:29.556Z,30.13
2023-04-26T09:18:34.925Z,30.02
2023-04-26T09:19:48.846Z,29.69
2023-04-26T09:21:09.252Z,29.70
2023-04-26T09:22:12.462Z,29.15
2023-04-26T09:23:18.089Z,28.70
2023-04-26T09:24:22.104Z,29.08
2023-04-26T09:25:32.648Z,29.31
2023-04-26T09:26:36.595Z,29.63
2023-04-26T09:27:41.684Z,30.02
2023-04-26T09:28:45.488Z,30.29
2023-04-26T09:30:21.978Z,30.69
2023-04-26T09:31:39.446Z,30.90
2023-04-26T09:32:55.997Z,31.20
2023-04-26T09:34:00.597Z,31.40
2023-04-26T09:35:05.241Z,31.18
2023-04-26T09:36:14.791Z,31.14
2023-04-26T09:37:18.594Z,31.16
2023-04-26T09:38:22.696Z,31.10
2023-04-26T09:39:34.672Z,29.93
2023-04-26T09:40:41.993Z,29.48
2023-04-26T09:41:46.098Z,28.77
2023-04-26T09:42:59.064Z,28.45
2023-04-26T09:44:02.833Z,28.76
2023-04-26T09:45:09.581Z,29.06
2023-04-26T09:46:13.571Z,29.56
2023-04-26T09:47:17.309Z,29.59
2023-04-26T09:48:29.656Z,29.86
2023-04-26T09:49:53.311Z,29.92
2023-04-26T09:50:59.920Z,29.92
2023-04-26T09:52:05.280Z,30.08
2023-04-26T09:53:09.873Z,30.32
2023-04-26T09:54:14.613Z,30.58
2023-04-26T09:55:35.008Z,30.79
2023-04-26T09:56:39.345Z,30.94
2023-04-26T09:57:46.012Z,31.10
2023-04-26T09:58:53.027Z,30.92
2023-04-26T09:59:57.104Z,30.77
2023-04-26T10:01:00.749Z,30.37
2023-04-26T10:02:04.401Z,30.35
2023-04-26T10:03:11.160Z,30.47
2023-04-26T10:04:15.042Z,30.53
2023-04-26T10:05:20.560Z,30.72
2023-04-26T10:06:30.411Z,30.72
2023-04-26T10:07:39.649Z,30.81
2023-04-26T10:09:10.776Z,30.88
2023-04-26T10:10:17.501Z,30.84
2023-04-26T10:11:22.854Z,30.84
2023-04-26T10:12:27.246Z,31.05
2023-04-26T10:13:33.536Z,31.20
2023-04-26T10:14:37.588Z,31.33
2023-04-26T10:15:43.961Z,31.46
2023-04-26T10:16:48.227Z,31.48
2023-04-26T10:17:52.817Z,31.25
2023-04-26T10:18:58.263Z,31.28
2023-04-26T10:20:19.019Z,30.99
2023-04-26T10:21:33.317Z,31.21
2023-04-26T10:22:41.359Z,31.24
2023-04-26T10:23:45.569Z,30.74
2023-04-26T10:24:49.924Z,30.65
2023-04-26T10:25:54.868Z,30.85
2023-04-26T10:27:00.524Z,31.08
2023-04-26T10:28:09.178Z,31.33
2023-04-26T10:29:12.311Z,31.10
2023-04-26T10:30:17.515Z,31.18
2023-04-26T10:31:21.149Z,31.16
2023-04-26T10:32:25.169Z,31.02
2023-04-26T10:33:28.732Z,30.47
2023-04-26T10:34:37.286Z,30.57
2023-04-26T10:36:02.852Z,30.38
2023-04-26T10:37:16.802Z,29.65
2023-04-26T10:38:21.394Z,29.95
2023-04-26T10:39:27.996Z,30.20
2023-04-26T10:40:33.935Z,30.16
2023-04-26T10:41:39.243Z,30.06
2023-04-26T10:42:44.826Z,30.13
2023-04-26T10:43:48.642Z,30.26
2023-04-26T10:45:33.178Z,30.65
2023-04-26T10:46:52.115Z,30.86
2023-04-26T10:48:22.972Z,31.17
2023-04-26T10:49:26.904Z,31.30
2023-04-26T10:51:22.548Z,31.19
2023-04-26T10:52:28.283Z,31.22
2023-04-26T10:53:47.330Z,31.39
2023-04-26T10:54:58.418Z,31.56
2023-04-26T10:56:01.949Z,31.65
2023-04-26T10:57:06.049Z,31.51
2023-04-26T10:58:31.199Z,31.60
2023-04-26T10:59:47.201Z,31.63
2023-04-26T11:01:09.645Z,31.69
2023-04-26T11:02:14.014Z,31.79
2023-04-26T11:03:18.128Z,31.85
2023-04-26T11:04:22.005Z,31.86
2023-04-26T11:05:38.351Z,31.82
2023-04-26T11:06:52.094Z,31.84
2023-04-26T11:08:25.580Z,31.92
2023-04-26T11:09:50.324Z,31.69
2023-04-26T11:11:12.821Z,31.88
2023-04-26T11:12:17.234Z,32.06
2023-04-26T11:13:21.498Z,32.21
2023-04-26T11:14:25.617Z,32.28
2023-04-26T11:15:29.725Z,32.25
2023-04-26T11:16:33.079Z,32.30
2023-04-26T11:17:39.442Z,32.37
2023-04-26T11:18:44.405Z,32.52
2023-04-26T11:19:51.307Z,32.62
2023-04-26T11:20:54.545Z,32.71
2023-04-26T11:21:58.248Z,32.81
2023-04-26T11:23:02.058Z,32.85
2023-04-26T11:24:06.124Z,32.87
2023-04-26T11:25:10.077Z,32.87
2023-04-26T11:26:13.595Z,32.88
2023-04-26T11:27:17.803Z,32.88
2023-04-26T11:28:22.842Z,32.90
2023-04-26T11:29:26.903Z,32.91
2023-04-26T11:30:33.328Z,32.78
2023-04-26T11:31:37.204Z,32.80
2023-04-26T11:32:41.195Z,32.87
2023-04-26T11:33:45.264Z,32.88
2023-04-26T11:34:51.529Z,32.87
2023-04-26T11:35:56.611Z,32.85
2023-04-26T11:36:59.989Z,32.81
2023-04-26T11:38:05.586Z,32.71
2023-04-26T11:39:09.453Z,32.52
2023-04-26T11:40:13.582Z,32.50
2023-04-26T11:41:17.642Z,32.53
2023-04-26T11:42:25.912Z,32.28
2023-04-26T11:43:39.538Z,31.95
2023-04-26T11:44:44.157Z,31.90
2023-04-26T11:45:49.377Z,31.89
2023-04-26T11:47:02.326Z,31.79
2023-04-26T11:48:09.854Z,31.73
2023-04-26T11:49:13.882Z,31.66
2023-04-26T11:50:17.543Z,31.68
2023-04-26T11:51:21.829Z,31.72
2023-04-26T11:52:25.592Z,31.78
2023-04-26T11:53:44.015Z,31.84
2023-04-26T11:54:47.034Z,31.70
2023-04-26T11:55:51.665Z,31.65
2023-04-26T11:56:55.255Z,31.71
2023-04-26T11:57:59.135Z,31.56
2023-04-26T11:59:02.592Z,31.60
2023-04-26T12:00:13.094Z,31.68
2023-04-26T12:01:29.638Z,31.60
2023-04-26T12:02:33.133Z,31.60
2023-04-26T12:03:38.368Z,31.66
2023-04-26T12:04:42.733Z,31.50
2023-04-26T12:05:55.777Z,31.58
2023-04-26T12:06:59.196Z,31.62
2023-04-26T12:08:03.457Z,31.54
2023-04-26T12:09:07.324Z,31.41
2023-04-26T12:10:21.651Z,31.29
2023-04-26T12:11:25.602Z,30.84
2023-04-26T12:12:29.598Z,30.84
2023-04-26T12:13:34.007Z,30.77
2023-04-26T12:14:39.138Z,30.80
2023-04-26T12:15:43.265Z,30.77
2023-04-26T12:16:47.416Z,30.86
2023-04-26T12:18:01.477Z,30.69
2023-04-26T12:19:09.317Z,30.55
2023-04-26T12:20:13.360Z,30.56
2023-04-26T12:21:18.116Z,30.56
2023-04-26T12:22:22.385Z,30.52
2023-04-26T12:23:26.175Z,30.52
2023-04-26T12:24:35.402Z,30.53
2023-04-26T12:25:39.926Z,30.23
2023-04-26T12:26:45.808Z,30.21
2023-04-26T12:27:49.257Z,30.16
2023-04-26T12:28:52.934Z,30.18
2023-04-26T12:29:56.514Z,30.09
2023-04-26T12:31:02.354Z,30.13
2023-04-26T12:32:06.566Z,30.01
2023-04-26T12:33:17.153Z,29.83
2023-04-26T12:34:21.765Z,29.71
2023-04-26T12:35:26.239Z,29.33
2023-04-26T12:36:29.872Z,29.03
2023-04-26T12:37:33.369Z,28.94
2023-04-26T12:38:37.464Z,28.80
2023-04-26T12:39:41.515Z,28.81
2023-04-26T12:40:47.958Z,28.80
2023-04-26T12:41:51.792Z,28.62
2023-04-26T12:42:57.044Z,28.38
2023-04-26T12:44:00.564Z,28.25
2023-04-26T12:45:05.049Z,28.13
2023-04-26T12:46:08.877Z,28.06
2023-04-26T12:47:12.895Z,28.10
2023-04-26T12:48:17.494Z,28.21
2023-04-26T12:49:21.709Z,27.97
2023-04-26T12:50:25.338Z,28.00
2023-04-26T12:51:30.035Z,28.02
2023-04-26T12:52:33.446Z,27.95
2023-04-26T12:53:37.729Z,27.86
2023-04-26T12:54:41.004Z,27.94
2023-04-26T12:55:45.563Z,27.82
2023-04-26T12:56:50.577Z,27.84
2023-04-26T12:57:54.121Z,27.86
2023-04-26T12:58:57.537Z,27.80
2023-04-26T13:00:01.260Z,27.88
2023-04-26T13:01:04.955Z,27.95
2023-04-26T13:02:08.861Z,27.75
2023-04-26T13:03:17.930Z,27.76
2023-04-26T13:04:22.307Z,27.72
2023-04-26T13:05:26.184Z,27.74
2023-04-26T13:06:30.298Z,27.56
2023-04-26T13:07:40.473Z,27.31
2023-04-26T13:08:44.077Z,27.41
2023-04-26T13:09:47.420Z,27.39
2023-04-26T13:10:52.309Z,27.30
2023-04-26T13:11:55.983Z,27.26
2023-04-26T13:12:59.935Z,27.35
2023-04-26T13:14:03.644Z,27.18
2023-04-26T13:15:08.909Z,27.28
2023-04-26T13:16:13.463Z,27.36
2023-04-26T13:17:17.492Z,27.47
2023-04-26T13:18:21.507Z,27.53
2023-04-26T13:19:25.284Z,27.63
2023-04-26T13:20:30.829Z,27.63
2023-04-26T13:21:35.223Z,27.69
2023-04-26T13:22:42.621Z,27.71
2023-04-26T13:23:47.233Z,27.62
2023-04-26T13:24:51.218Z,27.54
2023-04-26T13:25:54.495Z,27.49
2023-04-26T13:26:59.152Z,27.49
2023-04-26T13:28:03.866Z,27.59
2023-04-26T13:29:07.375Z,27.56
2023-04-26T13:30:12.219Z,27.51
2023-04-26T13:31:18.294Z,27.51
2023-04-26T13:32:22.768Z,27.45
2023-04-26T13:33:26.654Z,27.49
2023-04-26T13:34:31.769Z,27.37
2023-04-26T13:35:36.002Z,27.44
2023-04-26T13:36:40.068Z,27.42
2023-04-26T13:37:44.004Z,27.36
2023-04-26T13:38:47.337Z,27.16
2023-04-26T13:39:51.442Z,27.09
2023-04-26T13:40:54.813Z,27.11
2023-04-26T13:41:59.404Z,27.18
2023-04-26T13:43:03.101Z,27.15
2023-04-26T13:44:07.247Z,27.18
2023-04-26T13:45:12.666Z,27.21
2023-04-26T13:46:16.436Z,27.10
2023-04-26T13:47:20.165Z,27.02
2023-04-26T13:48:23.899Z,27.05
2023-04-26T13:49:28.382Z,27.08
2023-04-26T13:50:32.209Z,27.14
2023-04-26T13:51:36.052Z,27.15
2023-04-26T13:52:40.082Z,27.06
2023-04-26T13:53:43.598Z,27.01
2023-04-26T13:54:47.611Z,27.08
2023-04-26T13:55:51.026Z,27.07
2023-04-26T13:56:55.132Z,27.13
2023-04-26T13:57:59.299Z,27.16
2023-04-26T13:59:04.612Z,27.16
2023-04-26T14:00:09.253Z,27.05
2023-04-26T14:01:17.948Z,27.02
2023-04-26T14:02:22.407Z,26.99
2023-04-26T14:03:27.348Z,26.98
2023-04-26T14:04:31.507Z,27.05
2023-04-26T14:05:34.813Z,27.04
2023-04-26T14:06:38.615Z,27.00
2023-04-26T14:07:42.968Z,26.97
2023-04-26T14:08:47.599Z,26.96
2023-04-26T14:09:52.843Z,26.94
2023-04-26T14:10:56.665Z,26.86
2023-04-26T14:12:08.687Z,26.76
2023-04-26T14:13:12.742Z,26.72
2023-04-26T14:14:16.753Z,26.76
2023-04-26T14:15:20.259Z,26.80
2023-04-26T14:16:27.017Z,26.77
2023-04-26T14:17:30.278Z,26.82
2023-04-26T14:18:34.069Z,26.87
2023-04-26T14:19:38.093Z,26.91
2023-04-26T14:20:41.594Z,26.83
2023-04-26T14:21:44.982Z,26.86
2023-04-26T14:22:49.999Z,26.88
2023-04-26T14:23:53.612Z,26.82
2023-04-26T14:24:57.264Z,26.83
2023-04-26T14:26:00.376Z,26.92
2023-04-26T14:27:03.735Z,26.90